sensor_id;sensor_type;location;lat;lon;timestamp;P1;durP1;ratioP1;P2;durP2;ratioP2
20855;SDS011;63058;49.424;8.420;2023-05-14T00:00:19;2.50;;;2.30;;
20855;SDS011;63058;49.424;8.420;2023-05-14T00:02:44;2.90;;;2.53;;
20855;SDS011;63058;49.424;8.420;2023-05-14T00:05:10;2.22;;;2.03;;
20855;SDS011;63058;49.424;8.420;2023-05-14T00:07:35;2.60;;;2.30;;
20855;SDS011;63058;49.424;8.420;2023-05-14T00:10:01;2.78;;;2.05;;
20855;SDS011;63058;49.424;8.420;2023-05-14T00:12:27;2.58;;;2.00;;
20855;SDS011;63058;49.424;8.420;2023-05-14T00:14:54;2.63;;;2.10;;
20855;SDS011;63058;49.424;8.420;2023-05-14T00:17:19;3.15;;;2.15;;
20855;SDS011;63058;49.424;8.420;2023-05-14T00:19:45;2.60;;;2.40;;
20855;SDS011;63058;49.424;8.420;2023-05-14T00:22:11;2.25;;;2.05;;
20855;SDS011;63058;49.424;8.420;2023-05-14T00:24:37;2.70;;;2.15;;
20855;SDS011;63058;49.424;8.420;2023-05-14T00:27:02;2.30;;;2.08;;
20855;SDS011;63058;49.424;8.420;2023-05-14T00:29:28;2.30;;;2.10;;
20855;SDS011;63058;49.424;8.420;2023-05-14T00:31:54;2.45;;;1.98;;
20855;SDS011;63058;49.424;8.420;2023-05-14T00:34:20;2.83;;;2.00;;
20855;SDS011;63058;49.424;8.420;2023-05-14T00:36:46;2.00;;;1.90;;
20855;SDS011;63058;49.424;8.420;2023-05-14T00:39:12;2.40;;;2.20;;
20855;SDS011;63058;49.424;8.420;2023-05-14T00:41:37;2.15;;;1.95;;
20855;SDS011;63058;49.424;8.420;2023-05-14T00:44:03;2.15;;;2.00;;
20855;SDS011;63058;49.424;8.420;2023-05-14T00:46:29;1.75;;;1.65;;
20855;SDS011;63058;49.424;8.420;2023-05-14T00:48:56;2.35;;;1.90;;
20855;SDS011;63058;49.424;8.420;2023-05-14T00:51:22;2.58;;;1.90;;
20855;SDS011;63058;49.424;8.420;2023-05-14T00:53:48;3.63;;;2.05;;
20855;SDS011;63058;49.424;8.420;2023-05-14T00:56:14;3.10;;;1.95;;
20855;SDS011;63058;49.424;8.420;2023-05-14T00:58:41;2.17;;;1.90;;
20855;SDS011;63058;49.424;8.420;2023-05-14T01:01:07;2.30;;;2.10;;
20855;SDS011;63058;49.424;8.420;2023-05-14T01:03:33;2.72;;;2.13;;
20855;SDS011;63058;49.424;8.420;2023-05-14T01:06:03;4.10;;;2.30;;
20855;SDS011;63058;49.424;8.420;2023-05-14T01:11:26;4.70;;;2.15;;
20855;SDS011;63058;49.424;8.420;2023-05-14T01:17:09;3.25;;;2.38;;
20855;SDS011;63058;49.424;8.420;2023-05-14T01:19:40;4.32;;;3.55;;
20855;SDS011;63058;49.424;8.420;2023-05-14T01:22:07;4.25;;;3.30;;
20855;SDS011;63058;49.424;8.420;2023-05-14T01:24:34;2.92;;;2.60;;
20855;SDS011;63058;49.424;8.420;2023-05-14T01:27:02;5.38;;;2.33;;
20855;SDS011;63058;49.424;8.420;2023-05-14T01:29:52;3.47;;;2.22;;
20855;SDS011;63058;49.424;8.420;2023-05-14T01:32:26;2.50;;;2.25;;
20855;SDS011;63058;49.424;8.420;2023-05-14T01:34:53;2.70;;;2.00;;
20855;SDS011;63058;49.424;8.420;2023-05-14T01:37:22;2.58;;;2.38;;
20855;SDS011;63058;49.424;8.420;2023-05-14T01:39:49;2.38;;;2.17;;
20855;SDS011;63058;49.424;8.420;2023-05-14T01:42:16;3.78;;;2.33;;
20855;SDS011;63058;49.424;8.420;2023-05-14T01:44:42;2.40;;;1.90;;
20855;SDS011;63058;49.424;8.420;2023-05-14T01:47:08;2.95;;;2.50;;
20855;SDS011;63058;49.424;8.420;2023-05-14T01:49:33;2.35;;;2.08;;
20855;SDS011;63058;49.424;8.420;2023-05-14T01:52:01;2.83;;;1.90;;
20855;SDS011;63058;49.424;8.420;2023-05-14T01:54:26;2.63;;;2.40;;
20855;SDS011;63058;49.424;8.420;2023-05-14T01:56:52;2.05;;;1.85;;
20855;SDS011;63058;49.424;8.420;2023-05-14T01:59:18;5.03;;;2.05;;
20855;SDS011;63058;49.424;8.420;2023-05-14T02:01:43;2.22;;;2.03;;
20855;SDS011;63058;49.424;8.420;2023-05-14T02:04:09;2.10;;;1.90;;
20855;SDS011;63058;49.424;8.420;2023-05-14T02:06:35;2.30;;;2.10;;
20855;SDS011;63058;49.424;8.420;2023-05-14T02:09:00;2.58;;;2.25;;
20855;SDS011;63058;49.424;8.420;2023-05-14T02:11:26;2.05;;;1.73;;
20855;SDS011;63058;49.424;8.420;2023-05-14T02:13:52;1.90;;;1.65;;
20855;SDS011;63058;49.424;8.420;2023-05-14T02:16:18;2.10;;;1.95;;
20855;SDS011;63058;49.424;8.420;2023-05-14T02:18:44;2.40;;;2.05;;
20855;SDS011;63058;49.424;8.420;2023-05-14T02:21:10;3.05;;;2.38;;
20855;SDS011;63058;49.424;8.420;2023-05-14T02:23:35;3.00;;;2.50;;
20855;SDS011;63058;49.424;8.420;2023-05-14T02:26:01;2.72;;;2.33;;
20855;SDS011;63058;49.424;8.420;2023-05-14T02:28:27;2.38;;;2.17;;
20855;SDS011;63058;49.424;8.420;2023-05-14T02:30:57;3.03;;;2.00;;
20855;SDS011;63058;49.424;8.420;2023-05-14T02:33:23;3.90;;;3.10;;
20855;SDS011;63058;49.424;8.420;2023-05-14T02:35:49;3.67;;;2.40;;
20855;SDS011;63058;49.424;8.420;2023-05-14T02:38:15;2.50;;;2.30;;
20855;SDS011;63058;49.424;8.420;2023-05-14T02:40:40;2.88;;;2.33;;
20855;SDS011;63058;49.424;8.420;2023-05-14T02:43:06;4.95;;;2.15;;
20855;SDS011;63058;49.424;8.420;2023-05-14T02:45:31;3.10;;;2.50;;
20855;SDS011;63058;49.424;8.420;2023-05-14T02:47:57;5.80;;;2.88;;
20855;SDS011;63058;49.424;8.420;2023-05-14T02:50:23;2.65;;;2.45;;
20855;SDS011;63058;49.424;8.420;2023-05-14T02:52:48;2.25;;;2.05;;
20855;SDS011;63058;49.424;8.420;2023-05-14T02:55:14;2.70;;;2.25;;
20855;SDS011;63058;49.424;8.420;2023-05-14T02:57:39;4.70;;;3.30;;
20855;SDS011;63058;49.424;8.420;2023-05-14T03:00:05;2.83;;;2.38;;
20855;SDS011;63058;49.424;8.420;2023-05-14T03:02:33;5.88;;;3.22;;
20855;SDS011;63058;49.424;8.420;2023-05-14T03:04:59;4.07;;;3.42;;
20855;SDS011;63058;49.424;8.420;2023-05-14T03:07:25;4.50;;;4.07;;
20855;SDS011;63058;49.424;8.420;2023-05-14T03:09:51;4.53;;;3.92;;
20855;SDS011;63058;49.424;8.420;2023-05-14T03:12:16;4.80;;;4.30;;
20855;SDS011;63058;49.424;8.420;2023-05-14T03:14:42;7.53;;;5.15;;
20855;SDS011;63058;49.424;8.420;2023-05-14T03:17:08;4.80;;;4.10;;
20855;SDS011;63058;49.424;8.420;2023-05-14T03:19:34;5.15;;;4.20;;
20855;SDS011;63058;49.424;8.420;2023-05-14T03:21:59;6.35;;;4.97;;
20855;SDS011;63058;49.424;8.420;2023-05-14T03:24:25;7.63;;;5.10;;
20855;SDS011;63058;49.424;8.420;2023-05-14T03:26:51;5.45;;;4.70;;
20855;SDS011;63058;49.424;8.420;2023-05-14T03:29:17;7.00;;;5.00;;
20855;SDS011;63058;49.424;8.420;2023-05-14T03:31:43;7.50;;;4.82;;
20855;SDS011;63058;49.424;8.420;2023-05-14T03:34:09;5.60;;;5.03;;
20855;SDS011;63058;49.424;8.420;2023-05-14T03:36:35;7.03;;;5.25;;
20855;SDS011;63058;49.424;8.420;2023-05-14T03:39:02;10.20;;;4.93;;
20855;SDS011;63058;49.424;8.420;2023-05-14T03:41:30;6.93;;;4.78;;
20855;SDS011;63058;49.424;8.420;2023-05-14T03:43:56;6.88;;;5.20;;
20855;SDS011;63058;49.424;8.420;2023-05-14T03:46:22;4.13;;;3.70;;
20855;SDS011;63058;49.424;8.420;2023-05-14T03:48:48;4.70;;;4.30;;
20855;SDS011;63058;49.424;8.420;2023-05-14T03:51:13;4.72;;;4.18;;
20855;SDS011;63058;49.424;8.420;2023-05-14T03:53:39;4.95;;;4.45;;
20855;SDS011;63058;49.424;8.420;2023-05-14T03:56:05;4.93;;;4.43;;
20855;SDS011;63058;49.424;8.420;2023-05-14T03:58:31;5.57;;;4.97;;
20855;SDS011;63058;49.424;8.420;2023-05-14T04:00:56;6.07;;;4.60;;
20855;SDS011;63058;49.424;8.420;2023-05-14T04:03:22;5.93;;;5.32;;
20855;SDS011;63058;49.424;8.420;2023-05-14T04:05:48;5.25;;;4.43;;
20855;SDS011;63058;49.424;8.420;2023-05-14T04:08:14;5.28;;;4.78;;
20855;SDS011;63058;49.424;8.420;2023-05-14T04:10:40;6.13;;;5.40;;
20855;SDS011;63058;49.424;8.420;2023-05-14T04:13:06;5.78;;;5.28;;
20855;SDS011;63058;49.424;8.420;2023-05-14T04:15:32;7.72;;;5.68;;
20855;SDS011;63058;49.424;8.420;2023-05-14T04:17:59;6.60;;;5.90;;
20855;SDS011;63058;49.424;8.420;2023-05-14T04:20:25;6.18;;;5.57;;
20855;SDS011;63058;49.424;8.420;2023-05-14T04:22:51;4.57;;;4.05;;
20855;SDS011;63058;49.424;8.420;2023-05-14T04:25:18;6.70;;;5.57;;
20855;SDS011;63058;49.424;8.420;2023-05-14T04:27:44;5.82;;;4.95;;
20855;SDS011;63058;49.424;8.420;2023-05-14T04:30:10;6.15;;;5.07;;
20855;SDS011;63058;49.424;8.420;2023-05-14T04:32:36;5.72;;;4.80;;
20855;SDS011;63058;49.424;8.420;2023-05-14T04:35:03;5.93;;;5.05;;
20855;SDS011;63058;49.424;8.420;2023-05-14T04:37:29;6.32;;;5.72;;
20855;SDS011;63058;49.424;8.420;2023-05-14T04:39:55;6.78;;;5.30;;
20855;SDS011;63058;49.424;8.420;2023-05-14T04:42:21;6.13;;;5.40;;
20855;SDS011;63058;49.424;8.420;2023-05-14T04:44:47;5.85;;;5.00;;
20855;SDS011;63058;49.424;8.420;2023-05-14T04:47:13;5.72;;;5.05;;
20855;SDS011;63058;49.424;8.420;2023-05-14T04:49:39;6.80;;;5.47;;
20855;SDS011;63058;49.424;8.420;2023-05-14T04:52:05;8.50;;;5.72;;
20855;SDS011;63058;49.424;8.420;2023-05-14T04:54:31;7.53;;;6.07;;
20855;SDS011;63058;49.424;8.420;2023-05-14T04:56:56;5.40;;;4.88;;
20855;SDS011;63058;49.424;8.420;2023-05-14T04:59:27;5.53;;;4.97;;
20855;SDS011;63058;49.424;8.420;2023-05-14T05:01:55;5.93;;;5.35;;
20855;SDS011;63058;49.424;8.420;2023-05-14T05:04:21;7.28;;;5.63;;
20855;SDS011;63058;49.424;8.420;2023-05-14T05:06:48;7.38;;;6.32;;
20855;SDS011;63058;49.424;8.420;2023-05-14T05:09:14;9.50;;;5.88;;
20855;SDS011;63058;49.424;8.420;2023-05-14T05:11:41;6.22;;;5.63;;
20855;SDS011;63058;49.424;8.420;2023-05-14T05:14:07;7.07;;;5.97;;
20855;SDS011;63058;49.424;8.420;2023-05-14T05:16:32;6.43;;;5.55;;
20855;SDS011;63058;49.424;8.420;2023-05-14T05:18:58;8.48;;;6.35;;
20855;SDS011;63058;49.424;8.420;2023-05-14T05:21:24;7.30;;;5.43;;
20855;SDS011;63058;49.424;8.420;2023-05-14T05:23:50;6.10;;;5.50;;
20855;SDS011;63058;49.424;8.420;2023-05-14T05:26:15;6.35;;;5.53;;
20855;SDS011;63058;49.424;8.420;2023-05-14T05:28:41;8.27;;;6.10;;
20855;SDS011;63058;49.424;8.420;2023-05-14T05:31:07;6.82;;;6.13;;
20855;SDS011;63058;49.424;8.420;2023-05-14T05:33:33;7.15;;;6.10;;
20855;SDS011;63058;49.424;8.420;2023-05-14T05:35:59;8.80;;;5.63;;
20855;SDS011;63058;49.424;8.420;2023-05-14T05:38:25;7.50;;;6.35;;
20855;SDS011;63058;49.424;8.420;2023-05-14T05:40:50;5.72;;;5.13;;
20855;SDS011;63058;49.424;8.420;2023-05-14T05:43:16;6.70;;;5.60;;
20855;SDS011;63058;49.424;8.420;2023-05-14T05:45:42;6.70;;;5.70;;
20855;SDS011;63058;49.424;8.420;2023-05-14T05:48:09;5.68;;;5.15;;
20855;SDS011;63058;49.424;8.420;2023-05-14T05:50:35;6.68;;;6.00;;
20855;SDS011;63058;49.424;8.420;2023-05-14T05:53:01;6.80;;;5.50;;
20855;SDS011;63058;49.424;8.420;2023-05-14T05:55:27;9.82;;;5.57;;
20855;SDS011;63058;49.424;8.420;2023-05-14T05:57:53;6.70;;;6.00;;
20855;SDS011;63058;49.424;8.420;2023-05-14T06:00:19;6.88;;;5.90;;
20855;SDS011;63058;49.424;8.420;2023-05-14T06:02:45;8.05;;;5.63;;
20855;SDS011;63058;49.424;8.420;2023-05-14T06:05:10;7.18;;;5.80;;
20855;SDS011;63058;49.424;8.420;2023-05-14T06:07:36;6.40;;;5.00;;
20855;SDS011;63058;49.424;8.420;2023-05-14T06:10:02;6.00;;;5.50;;
20855;SDS011;63058;49.424;8.420;2023-05-14T06:12:28;6.20;;;5.57;;
20855;SDS011;63058;49.424;8.420;2023-05-14T06:14:54;6.13;;;5.53;;
20855;SDS011;63058;49.424;8.420;2023-05-14T06:17:21;5.97;;;5.38;;
20855;SDS011;63058;49.424;8.420;2023-05-14T06:19:48;5.95;;;5.22;;
20855;SDS011;63058;49.424;8.420;2023-05-14T06:22:15;6.45;;;5.75;;
20855;SDS011;63058;49.424;8.420;2023-05-14T06:24:41;7.03;;;6.30;;
20855;SDS011;63058;49.424;8.420;2023-05-14T06:27:06;6.20;;;5.28;;
20855;SDS011;63058;49.424;8.420;2023-05-14T06:29:32;12.90;;;6.63;;
20855;SDS011;63058;49.424;8.420;2023-05-14T06:32:01;8.88;;;6.32;;
20855;SDS011;63058;49.424;8.420;2023-05-14T06:34:27;7.05;;;6.13;;
20855;SDS011;63058;49.424;8.420;2023-05-14T06:36:53;6.80;;;6.10;;
20855;SDS011;63058;49.424;8.420;2023-05-14T06:39:19;6.95;;;5.45;;
20855;SDS011;63058;49.424;8.420;2023-05-14T06:41:45;6.30;;;5.45;;
20855;SDS011;63058;49.424;8.420;2023-05-14T06:44:11;7.43;;;5.90;;
20855;SDS011;63058;49.424;8.420;2023-05-14T06:46:36;9.82;;;6.68;;
20855;SDS011;63058;49.424;8.420;2023-05-14T06:49:02;7.45;;;6.70;;
20855;SDS011;63058;49.424;8.420;2023-05-14T06:51:28;9.63;;;6.15;;
20855;SDS011;63058;49.424;8.420;2023-05-14T06:53:54;6.82;;;6.10;;
20855;SDS011;63058;49.424;8.420;2023-05-14T06:56:23;7.80;;;6.35;;
20855;SDS011;63058;49.424;8.420;2023-05-14T06:58:49;7.78;;;6.20;;
20855;SDS011;63058;49.424;8.420;2023-05-14T07:01:15;6.45;;;5.63;;
20855;SDS011;63058;49.424;8.420;2023-05-14T07:03:41;6.78;;;5.80;;
20855;SDS011;63058;49.424;8.420;2023-05-14T07:06:07;8.30;;;6.55;;
20855;SDS011;63058;49.424;8.420;2023-05-14T07:08:33;7.75;;;6.35;;
20855;SDS011;63058;49.424;8.420;2023-05-14T07:10:58;7.93;;;6.57;;
20855;SDS011;63058;49.424;8.420;2023-05-14T07:13:24;7.60;;;6.50;;
20855;SDS011;63058;49.424;8.420;2023-05-14T07:15:52;7.30;;;6.50;;
20855;SDS011;63058;49.424;8.420;2023-05-14T07:18:19;7.63;;;6.07;;
20855;SDS011;63058;49.424;8.420;2023-05-14T07:20:48;7.05;;;5.85;;
20855;SDS011;63058;49.424;8.420;2023-05-14T07:23:14;6.90;;;5.93;;
20855;SDS011;63058;49.424;8.420;2023-05-14T07:25:40;5.97;;;5.38;;
20855;SDS011;63058;49.424;8.420;2023-05-14T07:28:06;6.50;;;5.88;;
20855;SDS011;63058;49.424;8.420;2023-05-14T07:30:32;6.30;;;5.70;;
20855;SDS011;63058;49.424;8.420;2023-05-14T07:32:57;9.18;;;5.80;;
20855;SDS011;63058;49.424;8.420;2023-05-14T07:35:23;7.00;;;6.30;;
20855;SDS011;63058;49.424;8.420;2023-05-14T07:37:49;5.80;;;5.20;;
20855;SDS011;63058;49.424;8.420;2023-05-14T07:40:15;7.10;;;6.13;;
20855;SDS011;63058;49.424;8.420;2023-05-14T07:42:41;8.50;;;6.32;;
20855;SDS011;63058;49.424;8.420;2023-05-14T07:45:06;6.15;;;5.55;;
20855;SDS011;63058;49.424;8.420;2023-05-14T07:47:33;6.95;;;5.60;;
20855;SDS011;63058;49.424;8.420;2023-05-14T07:49:59;8.52;;;6.35;;
20855;SDS011;63058;49.424;8.420;2023-05-14T07:52:25;6.00;;;5.40;;
20855;SDS011;63058;49.424;8.420;2023-05-14T07:54:50;7.20;;;6.50;;
20855;SDS011;63058;49.424;8.420;2023-05-14T07:57:17;7.43;;;6.18;;
20855;SDS011;63058;49.424;8.420;2023-05-14T07:59:43;7.43;;;5.90;;
20855;SDS011;63058;49.424;8.420;2023-05-14T08:02:08;8.00;;;5.72;;
20855;SDS011;63058;49.424;8.420;2023-05-14T08:04:36;10.85;;;5.75;;
20855;SDS011;63058;49.424;8.420;2023-05-14T08:07:02;7.05;;;6.07;;
20855;SDS011;63058;49.424;8.420;2023-05-14T08:09:28;7.45;;;6.15;;
20855;SDS011;63058;49.424;8.420;2023-05-14T08:11:54;8.23;;;6.22;;
20855;SDS011;63058;49.424;8.420;2023-05-14T08:14:19;11.93;;;6.82;;
20855;SDS011;63058;49.424;8.420;2023-05-14T08:16:45;8.32;;;5.57;;
20855;SDS011;63058;49.424;8.420;2023-05-14T08:19:11;7.18;;;5.47;;
20855;SDS011;63058;49.424;8.420;2023-05-14T08:21:37;7.00;;;4.78;;
20855;SDS011;63058;49.424;8.420;2023-05-14T08:24:03;4.82;;;4.32;;
20855;SDS011;63058;49.424;8.420;2023-05-14T08:26:29;5.63;;;4.93;;
20855;SDS011;63058;49.424;8.420;2023-05-14T08:28:55;6.50;;;5.32;;
20855;SDS011;63058;49.424;8.420;2023-05-14T08:31:20;5.93;;;5.00;;
20855;SDS011;63058;49.424;8.420;2023-05-14T08:33:46;7.38;;;6.20;;
20855;SDS011;63058;49.424;8.420;2023-05-14T08:36:12;6.60;;;5.10;;
20855;SDS011;63058;49.424;8.420;2023-05-14T08:38:38;5.55;;;4.63;;
20855;SDS011;63058;49.424;8.420;2023-05-14T08:41:04;5.25;;;4.63;;
20855;SDS011;63058;49.424;8.420;2023-05-14T08:43:36;7.57;;;6.63;;
20855;SDS011;63058;49.424;8.420;2023-05-14T08:46:29;5.78;;;5.20;;
20855;SDS011;63058;49.424;8.420;2023-05-14T08:48:58;4.65;;;4.25;;
20855;SDS011;63058;49.424;8.420;2023-05-14T08:51:28;6.03;;;4.68;;
20855;SDS011;63058;49.424;8.420;2023-05-14T08:53:55;5.75;;;5.20;;
20855;SDS011;63058;49.424;8.420;2023-05-14T08:56:26;5.43;;;4.93;;
20855;SDS011;63058;49.424;8.420;2023-05-14T08:58:52;7.32;;;6.13;;
20855;SDS011;63058;49.424;8.420;2023-05-14T09:01:18;6.10;;;4.80;;
20855;SDS011;63058;49.424;8.420;2023-05-14T09:03:44;5.90;;;5.22;;
20855;SDS011;63058;49.424;8.420;2023-05-14T09:06:11;5.30;;;4.80;;
20855;SDS011;63058;49.424;8.420;2023-05-14T09:08:38;5.75;;;5.03;;
20855;SDS011;63058;49.424;8.420;2023-05-14T09:11:04;5.15;;;4.65;;
20855;SDS011;63058;49.424;8.420;2023-05-14T09:13:29;4.85;;;3.88;;
20855;SDS011;63058;49.424;8.420;2023-05-14T09:15:55;4.93;;;4.43;;
20855;SDS011;63058;49.424;8.420;2023-05-14T09:18:21;5.45;;;4.40;;
20855;SDS011;63058;49.424;8.420;2023-05-14T09:20:47;5.00;;;4.07;;
20855;SDS011;63058;49.424;8.420;2023-05-14T09:23:13;4.40;;;4.00;;
20855;SDS011;63058;49.424;8.420;2023-05-14T09:25:39;5.45;;;4.88;;
20855;SDS011;63058;49.424;8.420;2023-05-14T09:28:07;5.00;;;4.20;;
20855;SDS011;63058;49.424;8.420;2023-05-14T09:30:33;5.38;;;4.72;;
20855;SDS011;63058;49.424;8.420;2023-05-14T09:33:00;6.32;;;4.63;;
20855;SDS011;63058;49.424;8.420;2023-05-14T09:35:27;4.97;;;3.97;;
20855;SDS011;63058;49.424;8.420;2023-05-14T09:37:53;5.30;;;4.70;;
20855;SDS011;63058;49.424;8.420;2023-05-14T09:40:20;4.43;;;4.03;;
20855;SDS011;63058;49.424;8.420;2023-05-14T09:42:48;5.70;;;4.82;;
20855;SDS011;63058;49.424;8.420;2023-05-14T09:45:14;5.13;;;4.05;;
20855;SDS011;63058;49.424;8.420;2023-05-14T09:47:41;4.78;;;4.35;;
20855;SDS011;63058;49.424;8.420;2023-05-14T09:50:07;4.70;;;4.30;;
20855;SDS011;63058;49.424;8.420;2023-05-14T09:52:33;5.20;;;4.70;;
20855;SDS011;63058;49.424;8.420;2023-05-14T09:54:59;4.80;;;4.30;;
20855;SDS011;63058;49.424;8.420;2023-05-14T09:57:25;4.60;;;3.92;;
20855;SDS011;63058;49.424;8.420;2023-05-14T09:59:51;8.52;;;4.25;;
20855;SDS011;63058;49.424;8.420;2023-05-14T10:02:23;5.00;;;4.40;;
20855;SDS011;63058;49.424;8.420;2023-05-14T10:05:01;5.38;;;3.83;;
20855;SDS011;63058;49.424;8.420;2023-05-14T10:07:31;3.75;;;3.45;;
20855;SDS011;63058;49.424;8.420;2023-05-14T10:10:05;5.30;;;4.30;;
20855;SDS011;63058;49.424;8.420;2023-05-14T10:12:35;4.70;;;4.18;;
20855;SDS011;63058;49.424;8.420;2023-05-14T10:15:05;5.03;;;3.72;;
20855;SDS011;63058;49.424;8.420;2023-05-14T10:17:38;5.65;;;3.38;;
20855;SDS011;63058;49.424;8.420;2023-05-14T10:20:08;5.72;;;4.35;;
20855;SDS011;63058;49.424;8.420;2023-05-14T10:22:37;3.75;;;3.10;;
20855;SDS011;63058;49.424;8.420;2023-05-14T10:25:03;3.10;;;2.80;;
20855;SDS011;63058;49.424;8.420;2023-05-14T10:27:29;4.18;;;3.40;;
20855;SDS011;63058;49.424;8.420;2023-05-14T10:29:56;3.97;;;3.25;;
20855;SDS011;63058;49.424;8.420;2023-05-14T10:32:22;3.55;;;3.25;;
20855;SDS011;63058;49.424;8.420;2023-05-14T10:34:49;5.80;;;3.35;;
20855;SDS011;63058;49.424;8.420;2023-05-14T10:37:22;3.80;;;3.50;;
20855;SDS011;63058;49.424;8.420;2023-05-14T10:44:59;10.90;;;3.42;;
20855;SDS011;63058;49.424;8.420;2023-05-14T10:47:27;4.50;;;4.00;;
20855;SDS011;63058;49.424;8.420;2023-05-14T10:49:54;3.90;;;3.50;;
20855;SDS011;63058;49.424;8.420;2023-05-14T10:52:23;4.32;;;3.92;;
20855;SDS011;63058;49.424;8.420;2023-05-14T10:54:56;3.70;;;3.40;;
20855;SDS011;63058;49.424;8.420;2023-05-14T10:57:24;4.07;;;3.60;;
20855;SDS011;63058;49.424;8.420;2023-05-14T10:59:53;3.53;;;3.22;;
20855;SDS011;63058;49.424;8.420;2023-05-14T11:02:27;3.90;;;3.30;;
20855;SDS011;63058;49.424;8.420;2023-05-14T11:05:03;3.55;;;3.25;;
20855;SDS011;63058;49.424;8.420;2023-05-14T11:10:12;2.92;;;2.65;;
20855;SDS011;63058;49.424;8.420;2023-05-14T11:12:40;4.55;;;3.53;;
20855;SDS011;63058;49.424;8.420;2023-05-14T11:15:08;3.50;;;3.20;;
20855;SDS011;63058;49.424;8.420;2023-05-14T11:17:39;3.63;;;3.33;;
20855;SDS011;63058;49.424;8.420;2023-05-14T11:20:06;3.30;;;3.00;;
20855;SDS011;63058;49.424;8.420;2023-05-14T11:22:33;3.92;;;3.63;;
20855;SDS011;63058;49.424;8.420;2023-05-14T11:25:00;3.20;;;2.90;;
20855;SDS011;63058;49.424;8.420;2023-05-14T11:27:26;3.00;;;2.70;;
20855;SDS011;63058;49.424;8.420;2023-05-14T11:29:52;4.80;;;3.30;;
20855;SDS011;63058;49.424;8.420;2023-05-14T11:32:19;3.92;;;3.20;;
20855;SDS011;63058;49.424;8.420;2023-05-14T11:34:47;4.45;;;3.58;;
20855;SDS011;63058;49.424;8.420;2023-05-14T11:37:13;4.57;;;4.05;;
20855;SDS011;63058;49.424;8.420;2023-05-14T11:39:51;3.65;;;2.83;;
20855;SDS011;63058;49.424;8.420;2023-05-14T11:42:18;3.17;;;2.70;;
20855;SDS011;63058;49.424;8.420;2023-05-14T11:44:45;2.53;;;2.20;;
20855;SDS011;63058;49.424;8.420;2023-05-14T11:47:13;4.18;;;3.10;;
20855;SDS011;63058;49.424;8.420;2023-05-14T11:49:39;3.13;;;2.45;;
20855;SDS011;63058;49.424;8.420;2023-05-14T11:52:06;3.42;;;3.10;;
20855;SDS011;63058;49.424;8.420;2023-05-14T11:54:35;3.40;;;2.53;;
20855;SDS011;63058;49.424;8.420;2023-05-14T11:57:05;3.30;;;2.97;;
20855;SDS011;63058;49.424;8.420;2023-05-14T11:59:35;4.20;;;3.80;;
20855;SDS011;63058;49.424;8.420;2023-05-14T12:02:02;3.15;;;2.85;;
20855;SDS011;63058;49.424;8.420;2023-05-14T12:04:31;3.78;;;3.03;;
20855;SDS011;63058;49.424;8.420;2023-05-14T12:06:58;2.95;;;2.67;;
20855;SDS011;63058;49.424;8.420;2023-05-14T12:09:24;3.47;;;2.40;;
20855;SDS011;63058;49.424;8.420;2023-05-14T12:11:50;3.47;;;2.20;;
20855;SDS011;63058;49.424;8.420;2023-05-14T12:14:20;3.42;;;2.60;;
20855;SDS011;63058;49.424;8.420;2023-05-14T12:16:47;2.60;;;2.40;;
20855;SDS011;63058;49.424;8.420;2023-05-14T12:19:14;3.92;;;3.47;;
20855;SDS011;63058;49.424;8.420;2023-05-14T12:21:44;3.47;;;3.08;;
20855;SDS011;63058;49.424;8.420;2023-05-14T12:24:13;2.75;;;2.47;;
20855;SDS011;63058;49.424;8.420;2023-05-14T12:26:43;3.53;;;2.90;;
20855;SDS011;63058;49.424;8.420;2023-05-14T12:29:11;3.50;;;3.03;;
20855;SDS011;63058;49.424;8.420;2023-05-14T12:31:43;3.60;;;3.03;;
20855;SDS011;63058;49.424;8.420;2023-05-14T12:34:13;4.07;;;3.72;;
20855;SDS011;63058;49.424;8.420;2023-05-14T12:36:39;3.20;;;2.90;;
20855;SDS011;63058;49.424;8.420;2023-05-14T12:39:05;3.10;;;2.80;;
20855;SDS011;63058;49.424;8.420;2023-05-14T12:41:31;3.20;;;2.83;;
20855;SDS011;63058;49.424;8.420;2023-05-14T12:43:58;13.80;;;11.43;;
20855;SDS011;63058;49.424;8.420;2023-05-14T12:46:24;31.90;;;27.23;;
20855;SDS011;63058;49.424;8.420;2023-05-14T12:48:51;17.17;;;15.05;;
20855;SDS011;63058;49.424;8.420;2023-05-14T12:51:18;14.52;;;13.10;;
20855;SDS011;63058;49.424;8.420;2023-05-14T12:53:43;12.75;;;11.43;;
20855;SDS011;63058;49.424;8.420;2023-05-14T12:56:09;6.53;;;5.93;;
20855;SDS011;63058;49.424;8.420;2023-05-14T12:58:35;4.95;;;4.45;;
20855;SDS011;63058;49.424;8.420;2023-05-14T13:01:00;4.30;;;2.78;;
20855;SDS011;63058;49.424;8.420;2023-05-14T13:03:26;2.90;;;2.50;;
20855;SDS011;63058;49.424;8.420;2023-05-14T13:05:52;2.50;;;2.30;;
20855;SDS011;63058;49.424;8.420;2023-05-14T13:08:20;2.28;;;2.08;;
20855;SDS011;63058;49.424;8.420;2023-05-14T13:10:48;2.63;;;1.92;;
20855;SDS011;63058;49.424;8.420;2023-05-14T13:13:17;1.90;;;1.80;;
20855;SDS011;63058;49.424;8.420;2023-05-14T13:15:43;2.38;;;2.17;;
20855;SDS011;63058;49.424;8.420;2023-05-14T13:18:11;2.17;;;1.98;;
20855;SDS011;63058;49.424;8.420;2023-05-14T13:20:37;2.20;;;1.98;;
20855;SDS011;63058;49.424;8.420;2023-05-14T13:23:03;2.47;;;2.28;;
20855;SDS011;63058;49.424;8.420;2023-05-14T13:25:28;2.55;;;2.33;;
20855;SDS011;63058;49.424;8.420;2023-05-14T13:27:54;2.10;;;1.70;;
20855;SDS011;63058;49.424;8.420;2023-05-14T13:30:20;2.08;;;1.60;;
20855;SDS011;63058;49.424;8.420;2023-05-14T13:32:46;2.05;;;1.80;;
20855;SDS011;63058;49.424;8.420;2023-05-14T13:35:12;2.42;;;2.10;;
20855;SDS011;63058;49.424;8.420;2023-05-14T13:37:37;2.20;;;2.00;;
20855;SDS011;63058;49.424;8.420;2023-05-14T13:40:04;1.83;;;1.73;;
20855;SDS011;63058;49.424;8.420;2023-05-14T13:42:33;2.40;;;2.00;;
20855;SDS011;63058;49.424;8.420;2023-05-14T13:44:59;1.80;;;1.50;;
20855;SDS011;63058;49.424;8.420;2023-05-14T13:47:25;2.17;;;1.98;;
20855;SDS011;63058;49.424;8.420;2023-05-14T13:49:51;1.60;;;1.50;;
20855;SDS011;63058;49.424;8.420;2023-05-14T13:52:17;2.45;;;2.08;;
20855;SDS011;63058;49.424;8.420;2023-05-14T13:54:43;1.75;;;1.52;;
20855;SDS011;63058;49.424;8.420;2023-05-14T13:57:09;2.03;;;1.65;;
20855;SDS011;63058;49.424;8.420;2023-05-14T13:59:35;1.55;;;1.40;;
20855;SDS011;63058;49.424;8.420;2023-05-14T14:02:00;2.45;;;1.50;;
20855;SDS011;63058;49.424;8.420;2023-05-14T14:04:26;1.70;;;1.60;;
20855;SDS011;63058;49.424;8.420;2023-05-14T14:06:55;2.33;;;1.50;;
20855;SDS011;63058;49.424;8.420;2023-05-14T14:09:21;1.70;;;1.40;;
20855;SDS011;63058;49.424;8.420;2023-05-14T14:11:47;2.53;;;1.52;;
20855;SDS011;63058;49.424;8.420;2023-05-14T14:14:13;1.45;;;1.30;;
20855;SDS011;63058;49.424;8.420;2023-05-14T14:16:39;1.58;;;1.40;;
20855;SDS011;63058;49.424;8.420;2023-05-14T14:19:05;1.30;;;1.20;;
20855;SDS011;63058;49.424;8.420;2023-05-14T14:21:31;2.88;;;2.42;;
20855;SDS011;63058;49.424;8.420;2023-05-14T14:23:57;1.85;;;1.73;;
20855;SDS011;63058;49.424;8.420;2023-05-14T14:26:23;1.55;;;1.38;;
20855;SDS011;63058;49.424;8.420;2023-05-14T14:28:48;1.55;;;1.45;;
20855;SDS011;63058;49.424;8.420;2023-05-14T14:31:14;1.60;;;1.42;;
20855;SDS011;63058;49.424;8.420;2023-05-14T14:33:41;1.45;;;1.35;;
20855;SDS011;63058;49.424;8.420;2023-05-14T14:36:07;2.35;;;1.58;;
20855;SDS011;63058;49.424;8.420;2023-05-14T14:38:32;1.52;;;1.42;;
20855;SDS011;63058;49.424;8.420;2023-05-14T14:40:58;1.85;;;1.40;;
20855;SDS011;63058;49.424;8.420;2023-05-14T14:43:26;1.52;;;1.42;;
20855;SDS011;63058;49.424;8.420;2023-05-14T14:45:52;1.88;;;1.52;;
20855;SDS011;63058;49.424;8.420;2023-05-14T14:48:31;1.42;;;1.33;;
20855;SDS011;63058;49.424;8.420;2023-05-14T14:51:01;4.25;;;2.30;;
20855;SDS011;63058;49.424;8.420;2023-05-14T14:53:27;1.42;;;1.33;;
20855;SDS011;63058;49.424;8.420;2023-05-14T14:55:53;1.95;;;1.75;;
20855;SDS011;63058;49.424;8.420;2023-05-14T14:58:19;2.20;;;2.00;;